createdAt,value
2023-01-04T00:00:18.247Z,5.50
2023-01-04T00:05:19.913Z,5.52
2023-01-04T00:10:21.544Z,5.45
2023-01-04T00:15:23.181Z,5.47
2023-01-04T00:20:24.823Z,5.44
2023-01-04T00:25:26.716Z,5.34
2023-01-04T00:30:28.319Z,5.27
2023-01-04T00:35:45.189Z,5.16
2023-01-04T00:40:47.620Z,5.09
2023-01-04T00:45:49.284Z,5.01
2023-01-04T00:50:51.214Z,4.91
2023-01-04T00:55:52.868Z,4.78
2023-01-04T01:00:54.587Z,4.73
2023-01-04T01:06:00.728Z,4.68
2023-01-04T01:11:08.215Z,4.63
2023-01-04T01:16:13.145Z,4.58
2023-01-04T01:21:18.077Z,4.32
2023-01-04T01:26:22.611Z,4.20
2023-01-04T01:31:26.644Z,4.10
2023-01-04T01:36:28.548Z,3.95
2023-01-04T01:41:32.955Z,3.83
2023-01-04T01:46:44.341Z,3.75
2023-01-04T01:51:46.222Z,3.66
2023-01-04T01:56:50.830Z,3.60
2023-01-04T02:01:52.571Z,3.57
2023-01-04T02:06:57.836Z,3.46
2023-01-04T02:11:59.421Z,3.36
2023-01-04T02:17:34.449Z,3.25
2023-01-04T02:23:08.332Z,3.21
2023-01-04T02:28:25.555Z,3.09
2023-01-04T02:34:22.611Z,2.96
2023-01-04T02:39:42.368Z,2.86
2023-01-04T02:44:53.442Z,2.83
2023-01-04T02:50:13.846Z,2.82
2023-01-04T02:55:15.515Z,2.75
2023-01-04T03:01:07.724Z,2.64
2023-01-04T03:06:41.987Z,2.70
2023-01-04T03:12:11.947Z,2.69
2023-01-04T03:17:16.373Z,2.58
2023-01-04T03:22:45.675Z,2.54
2023-01-04T03:28:09.027Z,2.34
2023-01-04T03:33:29.931Z,2.13
2023-01-04T03:39:24.623Z,2.02
2023-01-04T03:45:05.929Z,1.82
2023-01-04T03:50:45.120Z,1.78
2023-01-04T03:55:47.762Z,1.96
2023-01-04T04:00:49.526Z,1.46
2023-01-04T04:06:10.127Z,1.68
2023-01-04T04:11:30.161Z,1.90
2023-01-04T04:16:31.921Z,2.03
2023-01-04T04:21:33.575Z,2.12
2023-01-04T04:26:35.172Z,2.16
2023-01-04T04:31:37.083Z,2.09
2023-01-04T04:36:38.862Z,2.04
2023-01-04T04:41:44.106Z,1.98
2023-01-04T04:46:47.553Z,1.89
2023-01-04T04:51:49.371Z,1.81
2023-01-04T04:56:51.025Z,1.68
2023-01-04T05:01:52.755Z,1.69
2023-01-04T05:06:54.749Z,1.76
2023-01-04T05:12:14.684Z,1.84
2023-01-04T05:17:17.371Z,1.87
2023-01-04T05:22:19.178Z,1.82
2023-01-04T05:27:20.834Z,1.84
2023-01-04T05:32:22.443Z,1.81
2023-01-04T05:37:24.207Z,1.92
2023-01-04T05:42:25.819Z,1.89
2023-01-04T05:47:27.969Z,1.84
2023-01-04T05:52:30.034Z,1.81
2023-01-04T05:57:32.130Z,1.78
2023-01-04T06:02:34.391Z,1.78
2023-01-04T06:07:36.486Z,1.64
2023-01-04T06:12:38.721Z,1.44
2023-01-04T06:17:40.814Z,1.49
2023-01-04T06:22:43.073Z,1.54
2023-01-04T06:27:44.809Z,1.53
2023-01-04T06:32:46.379Z,1.54
2023-01-04T06:37:48.175Z,1.49
2023-01-04T06:42:49.779Z,1.50
2023-01-04T06:47:51.439Z,1.45
2023-01-04T06:52:53.007Z,1.46
2023-01-04T06:57:59.373Z,1.42
2023-01-04T07:03:13.429Z,1.38
2023-01-04T07:08:18.127Z,1.38
2023-01-04T07:13:19.910Z,1.34
2023-01-04T07:18:21.910Z,1.38
2023-01-04T07:23:23.511Z,1.36
2023-01-04T07:28:54.168Z,1.36
2023-01-04T07:33:56.029Z,1.30
2023-01-04T07:38:59.984Z,1.32
2023-01-04T07:44:01.734Z,1.34
2023-01-04T07:49:04.411Z,1.38
2023-01-04T07:54:06.373Z,1.36
2023-01-04T07:59:09.521Z,1.27
2023-01-04T08:04:12.832Z,1.34
2023-01-04T08:09:14.639Z,1.45
2023-01-04T08:14:16.250Z,1.58
2023-01-04T08:19:20.776Z,1.66
2023-01-04T08:24:22.441Z,1.79
2023-01-04T08:29:28.210Z,1.95
2023-01-04T08:34:34.466Z,2.10
2023-01-04T08:39:36.254Z,2.31
2023-01-04T08:44:38.128Z,2.51
2023-01-04T08:49:39.793Z,2.73
2023-01-04T08:54:42.150Z,2.91
2023-01-04T08:59:43.962Z,3.05
2023-01-04T09:04:45.653Z,3.19
2023-01-04T09:09:47.446Z,3.34
2023-01-04T09:14:49.157Z,3.47
2023-01-04T09:19:50.745Z,3.60
2023-01-04T09:24:52.414Z,3.76
2023-01-04T09:29:55.651Z,3.92
2023-01-04T09:34:57.273Z,4.13
2023-01-04T09:39:58.899Z,4.31
2023-01-04T09:45:24.815Z,4.48
2023-01-04T09:50:42.877Z,4.70
2023-01-04T09:55:48.204Z,4.78
2023-01-04T10:01:00.710Z,4.88
2023-01-04T10:06:03.385Z,4.99
2023-01-04T10:11:29.939Z,5.05
2023-01-04T10:17:10.458Z,5.20
2023-01-04T10:22:11.545Z,5.36
2023-01-04T10:27:42.897Z,5.43
2023-01-04T10:32:46.196Z,5.56
2023-01-04T10:38:15.475Z,5.74
2023-01-04T10:43:25.272Z,5.89
2023-01-04T10:48:36.031Z,6.08
2023-01-04T10:53:56.475Z,6.23
2023-01-04T10:59:16.251Z,6.30
2023-01-04T11:04:53.293Z,6.41
2023-01-04T11:10:05.775Z,6.52
2023-01-04T11:15:08.261Z,6.63
2023-01-04T11:20:10.776Z,6.79
2023-01-04T11:25:35.226Z,6.88
2023-01-04T11:30:58.998Z,7.03
2023-01-04T11:36:01.517Z,7.17
2023-01-04T11:41:06.618Z,7.32
2023-01-04T11:46:17.801Z,7.48
2023-01-04T11:51:25.455Z,7.59
2023-01-04T11:56:32.334Z,7.73
2023-01-04T12:01:39.835Z,7.83
2023-01-04T12:06:57.887Z,8.11
2023-01-04T12:12:01.863Z,8.28
2023-01-04T12:17:06.113Z,8.49
2023-01-04T12:22:26.123Z,8.70
2023-01-04T12:27:28.150Z,8.92
2023-01-04T12:32:29.812Z,9.08
2023-01-04T12:37:48.480Z,9.26
2023-01-04T12:43:15.034Z,9.43
2023-01-04T12:48:47.318Z,9.69
2023-01-04T12:54:04.221Z,9.81
2023-01-04T12:59:27.391Z,10.01
2023-01-04T13:04:40.759Z,10.15
2023-01-04T13:09:50.370Z,10.17
2023-01-04T13:14:57.766Z,10.20
2023-01-04T13:20:00.632Z,10.08
2023-01-04T13:25:04.780Z,10.14
2023-01-04T13:30:06.744Z,10.24
2023-01-04T13:35:13.930Z,10.28
2023-01-04T13:40:19.447Z,10.19
2023-01-04T13:46:05.546Z,10.18
2023-01-04T13:51:37.726Z,10.15
2023-01-04T13:56:39.928Z,10.26
2023-01-04T14:01:44.576Z,10.26
2023-01-04T14:06:49.759Z,10.22
2023-01-04T14:17:36.231Z,10.14
2023-01-04T14:22:47.352Z,9.97
2023-01-04T14:27:48.987Z,9.82
2023-01-04T14:32:58.581Z,9.82
2023-01-04T14:38:06.167Z,9.78
2023-01-04T14:43:46.210Z,9.67
2023-01-04T14:48:47.800Z,9.63
2023-01-04T14:53:49.581Z,9.59
2023-01-04T14:58:51.171Z,9.53
2023-01-04T15:03:52.833Z,9.42
2023-01-04T15:08:54.448Z,9.35
2023-01-04T15:13:56.270Z,9.27
2023-01-04T15:18:58.104Z,9.22
2023-01-04T15:24:00.652Z,9.20
2023-01-04T15:29:02.659Z,9.20
2023-01-04T15:34:04.345Z,9.09
2023-01-04T15:39:07.349Z,8.95
2023-01-04T15:44:10.000Z,8.84
2023-01-04T15:49:16.852Z,8.82
2023-01-04T15:54:21.712Z,8.77
2023-01-04T15:59:23.880Z,8.65
2023-01-04T16:04:26.822Z,8.64
2023-01-04T16:09:28.695Z,8.58
2023-01-04T16:14:30.475Z,8.65
2023-01-04T16:19:34.199Z,8.67
2023-01-04T16:29:57.783Z,8.64
2023-01-04T16:34:59.432Z,8.65
2023-01-04T16:40:09.151Z,8.60
2023-01-04T16:45:11.658Z,8.60
2023-01-04T16:50:14.237Z,8.54
2023-01-04T16:55:21.792Z,8.49
2023-01-04T17:00:25.347Z,8.39
2023-01-04T17:05:27.207Z,8.36
2023-01-04T17:10:29.785Z,8.31
2023-01-04T17:15:47.078Z,8.33
2023-01-04T17:20:54.512Z,8.30
2023-01-04T17:26:01.390Z,8.35
2023-01-04T17:31:14.142Z,8.33
2023-01-04T17:36:17.842Z,8.37
2023-01-04T17:41:21.745Z,8.35
2023-01-04T17:46:25.184Z,8.34
2023-01-04T17:51:26.914Z,8.31
2023-01-04T17:56:30.042Z,8.23
2023-01-04T18:01:33.285Z,8.20
2023-01-04T18:06:37.239Z,8.22
2023-01-04T18:11:39.076Z,8.16
2023-01-04T18:16:56.687Z,8.10
2023-01-04T18:21:58.995Z,8.14
2023-01-04T18:32:24.312Z,8.06
2023-01-04T18:37:26.118Z,8.11
2023-01-04T18:42:27.819Z,8.14
2023-01-04T18:47:29.436Z,8.03
2023-01-04T18:52:31.046Z,7.93
2023-01-04T18:57:32.785Z,7.93
2023-01-04T19:02:35.020Z,7.92
2023-01-04T19:07:38.984Z,7.89
2023-01-04T19:12:40.790Z,7.82
2023-01-04T19:17:42.701Z,7.80
2023-01-04T19:22:44.276Z,7.78
2023-01-04T19:27:45.906Z,7.76
2023-01-04T19:32:47.512Z,7.78
2023-01-04T19:37:49.302Z,7.79
2023-01-04T19:42:51.666Z,7.75
2023-01-04T19:47:53.332Z,7.73
2023-01-04T19:52:54.985Z,7.72
2023-01-04T19:57:57.250Z,7.72
2023-01-04T20:02:59.082Z,7.71
2023-01-04T20:08:00.787Z,7.70
2023-01-04T20:13:02.763Z,7.64
2023-01-04T20:18:10.041Z,7.77
2023-01-04T20:23:15.546Z,7.84
2023-01-04T20:28:20.685Z,8.21
2023-01-04T20:33:22.503Z,8.50
2023-01-04T20:38:24.431Z,8.60
2023-01-04T20:43:36.350Z,8.63
2023-01-04T20:48:38.316Z,8.69
2023-01-04T20:53:39.971Z,8.80
2023-01-04T20:58:42.397Z,8.99
2023-01-04T21:03:44.567Z,9.07
2023-01-04T21:08:46.886Z,9.34
2023-01-04T21:13:50.334Z,9.46
2023-01-04T21:18:51.951Z,9.43
2023-01-04T21:23:57.960Z,9.53
2023-01-04T21:28:59.881Z,9.50
2023-01-04T21:34:02.970Z,9.50
2023-01-04T21:39:07.339Z,9.46
2023-01-04T21:44:09.265Z,9.42
2023-01-04T21:49:11.901Z,9.45
2023-01-04T21:54:13.971Z,9.48
2023-01-04T21:59:15.572Z,9.57
2023-01-04T22:04:17.766Z,9.71
2023-01-04T22:09:19.826Z,9.92
2023-01-04T22:14:21.533Z,10.20
2023-01-04T22:19:23.196Z,10.47
2023-01-04T22:24:25.135Z,10.44
2023-01-04T22:29:26.774Z,10.29
2023-01-04T22:34:28.670Z,10.52
2023-01-04T22:39:30.384Z,10.76
2023-01-04T22:44:32.009Z,10.97
2023-01-04T22:49:33.637Z,11.63
2023-01-04T22:54:35.486Z,11.87
2023-01-04T22:59:37.084Z,12.08
2023-01-04T23:04:38.782Z,12.07
2023-01-04T23:09:40.422Z,12.09
2023-01-04T23:14:42.373Z,12.05
2023-01-04T23:19:44.236Z,12.45
2023-01-04T23:24:46.076Z,12.32
2023-01-04T23:29:48.137Z,12.29
2023-01-04T23:34:51.246Z,12.58
2023-01-04T23:39:52.841Z,12.41
2023-01-04T23:44:54.483Z,12.30
2023-01-04T23:49:56.123Z,12.18
2023-01-04T23:54:57.937Z,12.23
2023-01-04T23:59:59.575Z,12.18
